Webcam

2022/10/01 16:50 EBBR 011650Z 28009KT 9999 FEW042 16/10 Q1011 NOSIG

Webcam

--- Refresh now ---